Time;durP1;ratioP1;P1;durP2;ratioP2;P2;SDS_P1;SDS_P2;PMS_P1;PMS_P2;Temp;Humidity;BMP_temperature;BMP_pressure;BME280_temperature;BME280_humidity;BME280_pressure;Samples;Min_cycle;Max_cycle;Signal;HPM_P1;HPM_P2
2022/10/10 00:00:36;;;;;;;3.88;2.08;;;8.10;99.90;;;;;;5053463;28;20048;-81
2022/10/10 00:03:02;;;;;;;6.57;2.17;;;8.10;99.90;;;;;;5046275;28;20110;-81
2022/10/10 00:05:28;;;;;;;4.32;2.60;;;8.10;99.90;;;;;;5071225;28;20040;-81
2022/10/10 00:07:54;;;;;;;4.35;2.78;;;8.20;99.90;;;;;;5057681;28;20033;-81
2022/10/10 00:10:20;;;;;;;3.95;2.22;;;8.00;99.90;;;;;;5049121;28;20181;-81
2022/10/10 00:12:46;;;;;;;3.30;2.08;;;8.00;99.90;;;;;;5061042;28;20052;-81
2022/10/10 00:15:13;;;;;;;7.68;3.03;;;8.00;99.90;;;;;;5072980;28;20119;-81
2022/10/10 00:17:41;;;;;;;4.72;2.55;;;8.00;99.90;;;;;;5055608;28;20071;-81
2022/10/10 00:20:07;;;;;;;4.32;2.72;;;8.10;99.90;;;;;;5072750;28;20047;-82
2022/10/10 00:22:33;;;;;;;4.88;2.55;;;8.20;99.90;;;;;;5071294;28;20170;-81
2022/10/10 00:24:59;;;;;;;3.90;2.38;;;8.20;99.90;;;;;;5038881;28;20076;-81
2022/10/10 00:27:24;;;;;;;4.28;2.40;;;8.20;99.90;;;;;;5056052;28;20037;-81
2022/10/10 00:29:50;;;;;;;4.45;2.53;;;8.20;99.90;;;;;;5069664;28;20497;-81
2022/10/10 00:32:16;;;;;;;6.75;2.63;;;8.20;99.90;;;;;;5072082;28;20074;-81
2022/10/10 00:34:41;;;;;;;7.57;2.40;;;8.80;99.90;;;;;;5045637;28;20087;-81
2022/10/10 00:37:07;;;;;;;6.85;2.50;;;8.40;99.90;;;;;;5054266;28;20568;-81
2022/10/10 00:39:33;;;;;;;6.07;2.78;;;8.40;99.90;;;;;;5071753;28;20131;-81
2022/10/10 00:41:58;;;;;;;7.03;2.35;;;8.40;99.90;;;;;;5039482;28;20041;-81
2022/10/10 00:44:26;;;;;;;4.95;2.30;;;8.20;99.90;;;;;;5069747;28;20082;-81
2022/10/10 00:46:52;;;;;;;4.18;2.30;;;8.40;99.90;;;;;;5063310;28;20063;-81
2022/10/10 00:49:23;;;;;;;4.10;2.30;;;8.20;99.90;;;;;;5069100;28;20079;-81
2022/10/10 00:51:54;;;;;;;4.20;2.28;;;8.10;99.90;;;;;;5071308;28;20044;-81
2022/10/10 00:54:22;;;;;;;5.85;2.30;;;8.10;99.90;;;;;;5054647;28;20044;-81
2022/10/10 00:56:57;;;;;;;4.03;2.33;;;8.10;99.90;;;;;;5058120;28;20085;-81
2022/10/10 00:59:25;;;;;;;5.47;2.43;;;8.00;99.90;;;;;;5059320;28;20504;-81
2022/10/10 01:01:50;;;;;;;3.78;2.40;;;8.00;99.90;;;;;;5070419;28;20123;-81
2022/10/10 01:04:38;;;;;;;4.85;2.20;;;8.00;99.90;;;;;;5055719;28;20553;-81
2022/10/10 01:07:10;;;;;;;4.70;2.75;;;7.90;99.90;;;;;;5075759;28;20470;-81
2022/10/10 01:09:39;;;;;;;4.85;2.45;;;8.00;99.90;;;;;;5075256;28;20536;-81
2022/10/10 01:12:20;;;;;;;4.50;2.03;;;8.00;99.90;;;;;;5071240;28;20049;-81
2022/10/10 01:15:09;;;;;;;4.70;2.65;;;7.90;99.90;;;;;;5069154;28;20406;-81
2022/10/10 01:17:48;;;;;;;5.30;2.90;;;7.90;99.90;;;;;;5054158;28;20094;-81
2022/10/10 01:20:49;;;;;;;5.68;2.60;;;7.90;99.90;;;;;;5075022;28;20097;-81
2022/10/10 01:23:32;;;;;;;4.68;2.60;;;7.90;99.90;;;;;;5071872;28;20111;-81
2022/10/10 01:26:07;;;;;;;5.22;2.80;;;7.90;99.90;;;;;;5057567;28;20076;-81
2022/10/10 01:28:37;;;;;;;5.25;2.80;;;7.90;99.90;;;;;;5071593;28;20041;-81
2022/10/10 01:31:06;;;;;;;6.20;2.67;;;7.90;99.90;;;;;;5052615;28;20536;-81
2022/10/10 01:33:42;;;;;;;8.05;2.90;;;7.80;99.90;;;;;;5074850;28;20076;-81
2022/10/10 01:36:31;;;;;;;3.97;2.60;;;7.80;99.90;;;;;;5074445;28;20055;-81
2022/10/10 01:39:05;;;;;;;6.85;3.28;;;7.80;99.90;;;;;;5058395;28;20059;-81
2022/10/10 01:41:37;;;;;;;5.50;3.08;;;7.80;99.90;;;;;;5072052;28;20049;-81
2022/10/10 01:44:02;;;;;;;6.97;2.97;;;8.10;99.90;;;;;;5055106;28;20055;-81
2022/10/10 01:46:28;;;;;;;3.78;2.40;;;7.80;99.90;;;;;;5057617;28;20044;-80
2022/10/10 01:48:57;;;;;;;5.70;2.85;;;8.20;99.90;;;;;;5073566;28;20036;-80
2022/10/10 01:51:51;;;;;;;3.88;2.05;;;8.40;99.90;;;;;;5073412;28;20052;-80
2022/10/10 01:54:44;;;;;;;5.35;2.45;;;7.70;99.90;;;;;;5061361;28;20082;-80
2022/10/10 01:57:10;;;;;;;5.15;2.90;;;7.70;99.90;;;;;;5066250;28;20158;-80
2022/10/10 01:59:57;;;;;;;6.18;3.15;;;8.30;99.90;;;;;;5057162;28;20104;-80
2022/10/10 02:02:54;;;;;;;8.43;3.00;;;8.40;99.90;;;;;;5058230;28;20045;-80
2022/10/10 02:05:42;;;;;;;4.05;2.35;;;7.90;99.90;;;;;;5074254;28;20044;-80
2022/10/10 02:08:19;;;;;;;5.22;3.05;;;7.70;99.90;;;;;;5060422;28;20037;-80
2022/10/10 02:10:53;;;;;;;6.30;2.50;;;7.70;99.90;;;;;;5071575;28;20482;-80
2022/10/10 02:13:22;;;;;;;6.03;2.85;;;7.70;99.90;;;;;;5070761;28;20057;-80
2022/10/10 02:15:52;;;;;;;4.30;2.42;;;7.70;99.90;;;;;;5073100;28;20052;-80
2022/10/10 02:18:21;;;;;;;7.07;2.60;;;8.10;99.90;;;;;;5053381;28;20072;-80
2022/10/10 02:20:49;;;;;;;6.75;3.05;;;7.50;99.90;;;;;;5074278;28;20782;-81
2022/10/10 02:23:18;;;;;;;5.13;2.33;;;7.50;99.90;;;;;;5057697;28;20040;-81
2022/10/10 02:25:49;;;;;;;4.50;2.75;;;7.50;99.90;;;;;;5067465;28;20447;-81
2022/10/10 02:28:21;;;;;;;6.93;2.58;;;7.40;99.90;;;;;;5062678;28;20431;-81
2022/10/10 02:30:51;;;;;;;6.35;3.13;;;7.50;99.90;;;;;;5070554;28;20047;-81
2022/10/10 02:33:31;;;;;;;6.60;2.92;;;7.50;99.90;;;;;;5074753;28;20036;-81
2022/10/10 02:35:59;;;;;;;3.42;2.00;;;7.40;99.90;;;;;;5074662;28;20044;-81
2022/10/10 02:38:26;;;;;;;4.78;2.85;;;7.40;99.90;;;;;;5074711;28;20044;-81
2022/10/10 02:40:53;;;;;;;5.90;2.60;;;7.40;99.90;;;;;;5067287;28;20044;-81
2022/10/10 02:43:19;;;;;;;5.00;2.67;;;7.40;99.90;;;;;;5054721;28;20045;-81
2022/10/10 02:45:46;;;;;;;7.25;3.20;;;7.40;99.90;;;;;;5037433;28;20041;-81
2022/10/10 02:48:11;;;;;;;3.90;2.40;;;7.30;99.90;;;;;;5066158;28;20126;-81
2022/10/10 02:50:37;;;;;;;5.60;2.72;;;7.60;99.90;;;;;;5067750;28;20444;-81
2022/10/10 02:53:03;;;;;;;4.40;2.60;;;7.30;99.90;;;;;;5051552;28;20139;-81
2022/10/10 02:55:29;;;;;;;4.82;2.70;;;7.30;99.90;;;;;;5062254;28;20045;-80
2022/10/10 02:57:54;;;;;;;7.90;3.08;;;7.30;99.90;;;;;;5072070;28;20078;-81
2022/10/10 03:00:20;;;;;;;6.05;3.15;;;7.50;99.90;;;;;;5056427;28;20106;-81
2022/10/10 03:02:46;;;;;;;5.97;3.15;;;8.30;99.90;;;;;;5073661;28;20051;-80
2022/10/10 03:05:13;;;;;;;5.80;2.50;;;7.40;99.90;;;;;;5056560;28;20051;-81
2022/10/10 03:07:38;;;;;;;5.25;2.92;;;7.30;99.90;;;;;;5056734;28;20046;-81
2022/10/10 03:10:06;;;;;;;4.60;2.53;;;7.40;99.90;;;;;;5073363;28;20127;-81
2022/10/10 03:12:35;;;;;;;7.38;3.08;;;7.20;99.90;;;;;;5072799;28;20052;-81
2022/10/10 03:15:01;;;;;;;4.18;2.28;;;7.20;99.90;;;;;;5056642;28;20106;-81
2022/10/10 03:17:27;;;;;;;6.45;2.60;;;7.30;99.90;;;;;;5073269;28;20095;-81
2022/10/10 03:19:52;;;;;;;6.10;3.20;;;7.50;99.90;;;;;;5073185;28;20044;-81
2022/10/10 03:22:18;;;;;;;4.68;2.95;;;7.10;99.90;;;;;;5068719;28;20402;-81
2022/10/10 03:24:44;;;;;;;6.65;2.65;;;7.10;99.90;;;;;;5072635;28;20043;-81
2022/10/10 03:27:09;;;;;;;5.72;2.80;;;7.70;99.90;;;;;;5056449;28;20036;-81
2022/10/10 03:29:35;;;;;;;4.53;2.60;;;7.20;99.90;;;;;;5073425;28;20537;-80
2022/10/10 03:32:01;;;;;;;5.93;3.13;;;7.20;99.90;;;;;;5072354;28;20513;-80
2022/10/10 03:34:26;;;;;;;6.88;2.97;;;7.10;99.90;;;;;;5039277;28;20131;-80
2022/10/10 03:36:52;;;;;;;7.65;3.92;;;7.10;99.90;;;;;;5052940;28;20502;-80
2022/10/10 03:39:18;;;;;;;4.78;2.58;;;7.00;99.90;;;;;;5053541;28;20483;-81
2022/10/10 03:41:44;;;;;;;5.22;2.95;;;7.00;99.90;;;;;;5036777;28;20079;-80
2022/10/10 03:44:09;;;;;;;4.65;2.85;;;7.00;99.90;;;;;;5035665;28;20047;-81
2022/10/10 03:46:35;;;;;;;4.72;2.80;;;7.00;99.90;;;;;;5069247;28;20453;-81
2022/10/10 03:49:01;;;;;;;5.53;2.95;;;7.10;99.90;;;;;;5064865;28;20124;-81
2022/10/10 03:51:26;;;;;;;3.67;2.30;;;7.00;99.90;;;;;;5036334;28;20052;-82
2022/10/10 03:53:53;;;;;;;5.55;3.03;;;7.30;99.90;;;;;;5028244;28;20044;-81
2022/10/10 03:56:19;;;;;;;5.22;2.70;;;7.40;99.90;;;;;;5054652;28;20044;-81
2022/10/10 03:58:45;;;;;;;5.95;2.88;;;7.00;99.90;;;;;;5036359;28;20037;-81
2022/10/10 04:01:10;;;;;;;4.45;2.67;;;7.00;99.90;;;;;;5031363;28;20037;-81
2022/10/10 04:03:36;;;;;;;4.05;2.55;;;7.10;99.90;;;;;;5054203;28;20044;-81
2022/10/10 04:06:02;;;;;;;5.43;2.70;;;7.00;99.90;;;;;;5071993;28;20479;-81
2022/10/10 04:08:29;;;;;;;5.45;2.67;;;7.00;99.90;;;;;;5052580;28;20040;-81
2022/10/10 04:10:55;;;;;;;7.13;3.25;;;7.00;99.90;;;;;;5052177;28;20044;-81
2022/10/10 04:13:24;;;;;;;4.55;2.55;;;7.10;99.90;;;;;;5052399;28;20049;-81
2022/10/10 04:15:51;;;;;;;4.40;2.45;;;7.10;99.90;;;;;;5038694;28;20125;-81
2022/10/10 04:18:17;;;;;;;6.00;2.72;;;7.20;99.90;;;;;;5072496;28;20041;-81
2022/10/10 04:20:43;;;;;;;4.55;2.70;;;7.10;99.90;;;;;;5058154;28;20095;-80
2022/10/10 04:23:09;;;;;;;7.03;3.50;;;7.10;99.90;;;;;;5019416;28;20340;-81
2022/10/10 04:25:34;;;;;;;7.53;3.53;;;7.10;99.90;;;;;;5064451;28;20032;-81
2022/10/10 04:28:00;;;;;;;7.53;3.20;;;7.10;99.90;;;;;;5071619;28;20040;-81
2022/10/10 04:30:30;;;;;;;5.72;2.63;;;7.20;99.90;;;;;;5039087;28;20101;-81
2022/10/10 04:32:56;;;;;;;6.78;3.45;;;7.20;99.90;;;;;;5072109;28;20063;-80
2022/10/10 04:35:22;;;;;;;6.00;2.70;;;7.20;99.90;;;;;;5070966;28;20465;-80
2022/10/10 04:37:47;;;;;;;8.02;3.60;;;7.10;99.90;;;;;;5055275;28;20136;-80
2022/10/10 04:40:13;;;;;;;5.30;3.00;;;7.10;99.90;;;;;;5038786;28;20049;-80
2022/10/10 04:42:39;;;;;;;7.57;2.97;;;7.10;99.90;;;;;;5055145;28;20080;-80
2022/10/10 04:45:05;;;;;;;6.20;2.90;;;7.10;99.90;;;;;;5071825;28;20056;-80
2022/10/10 04:47:31;;;;;;;5.82;3.55;;;7.10;99.90;;;;;;5071589;28;20097;-80
2022/10/10 04:49:57;;;;;;;5.80;3.10;;;7.20;99.90;;;;;;5067681;28;20036;-80
2022/10/10 04:52:22;;;;;;;8.88;2.95;;;7.00;99.90;;;;;;5055431;28;20154;-80
2022/10/10 04:54:48;;;;;;;6.53;3.25;;;7.00;99.90;;;;;;5071156;28;20043;-80
2022/10/10 04:57:14;;;;;;;6.20;3.50;;;7.10;99.90;;;;;;5070918;28;20047;-80
2022/10/10 04:59:40;;;;;;;5.13;2.78;;;7.00;99.90;;;;;;5071458;28;20532;-80
2022/10/10 05:02:05;;;;;;;12.43;3.15;;;7.00;99.90;;;;;;5054581;28;20486;-80
2022/10/10 05:04:31;;;;;;;6.70;3.17;;;7.00;99.90;;;;;;5071471;28;20044;-80
2022/10/10 05:06:57;;;;;;;5.05;2.72;;;7.00;99.90;;;;;;5056554;28;20032;-81
2022/10/10 05:09:23;;;;;;;4.35;2.70;;;7.00;99.90;;;;;;5051933;28;20119;-81
2022/10/10 05:11:48;;;;;;;7.13;3.03;;;7.00;99.90;;;;;;5070317;28;20082;-81
2022/10/10 05:14:14;;;;;;;6.95;3.10;;;7.00;99.90;;;;;;5054252;28;20144;-81
2022/10/10 05:16:40;;;;;;;7.03;3.33;;;7.10;99.90;;;;;;5070529;28;20086;-81
2022/10/10 05:19:05;;;;;;;4.85;3.08;;;7.00;99.90;;;;;;5054607;28;20047;-81
2022/10/10 05:21:31;;;;;;;5.60;3.10;;;7.10;99.90;;;;;;5054465;28;20124;-81
2022/10/10 05:23:57;;;;;;;9.90;3.35;;;7.00;99.90;;;;;;5071476;28;20033;-81
2022/10/10 05:26:23;;;;;;;6.88;3.40;;;7.00;99.90;;;;;;5071016;28;20051;-81
2022/10/10 05:28:48;;;;;;;6.20;3.20;;;7.00;99.90;;;;;;5071842;28;20032;-81
2022/10/10 05:31:14;;;;;;;7.97;2.83;;;7.00;99.90;;;;;;5071173;28;20437;-81
2022/10/10 05:33:40;;;;;;;4.78;2.72;;;7.00;99.90;;;;;;5065344;28;20072;-81
2022/10/10 05:36:09;;;;;;;5.40;3.00;;;7.00;99.90;;;;;;5071079;28;20466;-81
2022/10/10 05:38:35;;;;;;;5.30;2.55;;;6.90;99.90;;;;;;5054754;28;20045;-81
2022/10/10 05:41:01;;;;;;;8.57;2.97;;;7.20;99.90;;;;;;5069902;28;20044;-80
2022/10/10 05:43:27;;;;;;;4.85;2.47;;;6.90;99.90;;;;;;5053807;28;20037;-80
2022/10/10 05:45:56;;;;;;;5.88;3.03;;;7.20;99.90;;;;;;5069171;28;20072;-80
2022/10/10 05:48:23;;;;;;;5.57;2.83;;;6.90;99.90;;;;;;5070252;28;20124;-80
2022/10/10 05:50:54;;;;;;;6.60;3.15;;;6.90;99.90;;;;;;5052119;28;20569;-80
2022/10/10 05:53:24;;;;;;;3.65;2.35;;;6.90;99.90;;;;;;5076707;28;20548;-80
2022/10/10 05:55:51;;;;;;;4.07;2.72;;;6.90;99.90;;;;;;5057404;28;20036;-80
2022/10/10 05:58:17;;;;;;;5.90;2.95;;;6.90;99.90;;;;;;5073654;28;20386;-81
2022/10/10 06:00:45;;;;;;;6.72;3.25;;;7.00;99.90;;;;;;5074329;28;20123;-81
2022/10/10 06:03:13;;;;;;;5.82;2.65;;;7.00;99.90;;;;;;5067544;28;20139;-81
2022/10/10 06:05:39;;;;;;;5.15;3.05;;;7.00;99.90;;;;;;5058413;28;20448;-81
2022/10/10 06:08:06;;;;;;;5.70;3.00;;;7.20;99.90;;;;;;5057761;28;20052;-81
2022/10/10 06:10:37;;;;;;;6.95;2.75;;;7.90;99.90;;;;;;5075107;28;20501;-81
2022/10/10 06:13:03;;;;;;;6.47;3.58;;;7.20;99.90;;;;;;5074674;28;20048;-81
2022/10/10 06:15:29;;;;;;;5.70;3.03;;;7.30;99.90;;;;;;5075093;28;20044;-80
2022/10/10 06:17:55;;;;;;;7.93;3.28;;;7.10;99.90;;;;;;5074216;28;20040;-80
2022/10/10 06:20:21;;;;;;;6.15;2.97;;;7.40;99.90;;;;;;5068174;28;20044;-80
2022/10/10 06:22:47;;;;;;;6.00;3.40;;;7.50;99.90;;;;;;5074272;28;20047;-80
2022/10/10 06:25:13;;;;;;;6.22;3.20;;;7.70;99.90;;;;;;5038137;28;20048;-80
2022/10/10 06:27:38;;;;;;;4.90;2.78;;;7.70;99.90;;;;;;5066742;28;20133;-80
2022/10/10 06:30:05;;;;;;;6.97;2.95;;;7.80;99.90;;;;;;5045444;28;20036;-81
2022/10/10 06:32:30;;;;;;;6.38;3.10;;;8.00;99.90;;;;;;5057708;28;20070;-81
2022/10/10 06:34:56;;;;;;;3.72;2.53;;;8.10;99.90;;;;;;5072989;28;20112;-81
2022/10/10 06:37:22;;;;;;;4.35;2.80;;;8.20;99.90;;;;;;5073090;28;20048;-81
2022/10/10 06:39:47;;;;;;;5.47;2.90;;;8.30;99.90;;;;;;5024189;28;20058;-81
2022/10/10 06:42:13;;;;;;;6.03;3.08;;;8.40;99.90;;;;;;5056896;28;20115;-80
2022/10/10 06:44:39;;;;;;;5.25;3.03;;;8.70;99.90;;;;;;5072984;28;20051;-81
2022/10/10 06:47:07;;;;;;;5.97;3.45;;;8.90;99.90;;;;;;5056937;28;20048;-81
2022/10/10 06:49:32;;;;;;;7.05;2.83;;;9.70;99.90;;;;;;5040752;28;20032;-81
2022/10/10 06:51:58;;;;;;;5.97;3.22;;;10.20;99.90;;;;;;5073302;28;20475;-81
2022/10/10 06:54:24;;;;;;;12.60;3.50;;;11.60;99.90;;;;;;5068666;28;20037;-81
2022/10/10 06:56:49;;;;;;;4.57;2.90;;;12.80;99.90;;;;;;5072787;28;20422;-81
2022/10/10 06:59:18;;;;;;;5.68;2.88;;;13.80;99.90;;;;;;5056721;28;20044;-80
2022/10/10 07:01:44;;;;;;;5.65;2.88;;;14.60;99.90;;;;;;5073184;28;20395;-81
2022/10/10 07:04:11;;;;;;;4.03;2.42;;;15.00;99.90;;;;;;5072452;28;20036;-81
2022/10/10 07:06:36;;;;;;;4.13;2.45;;;15.20;99.90;;;;;;5073310;28;20048;-81
2022/10/10 07:09:02;;;;;;;5.65;2.72;;;15.60;99.90;;;;;;5073399;28;20140;-81
2022/10/10 07:11:29;;;;;;;5.55;2.55;;;16.30;99.90;;;;;;5072737;28;20538;-81
2022/10/10 07:13:54;;;;;;;5.82;2.42;;;16.80;99.90;;;;;;5055461;28;20109;-81
2022/10/10 07:16:20;;;;;;;5.65;2.30;;;17.00;99.90;;;;;;5057003;28;20123;-81
2022/10/10 07:18:46;;;;;;;6.60;2.78;;;16.60;99.60;;;;;;5072820;28;20052;-81
2022/10/10 07:21:11;;;;;;;5.80;3.00;;;15.70;99.90;;;;;;5072696;28;20126;-81
2022/10/10 07:23:38;;;;;;;4.07;2.50;;;15.20;99.90;;;;;;5056102;28;20036;-82
2022/10/10 07:26:09;;;;;;;4.78;2.45;;;15.20;99.90;;;;;;5056100;28;20040;-81
2022/10/10 07:28:35;;;;;;;5.18;2.50;;;15.80;99.90;;;;;;5060690;28;20419;-81
2022/10/10 07:31:04;;;;;;;4.30;2.40;;;17.00;99.90;;;;;;5039322;28;20032;-81
2022/10/10 07:33:38;;;;;;;6.15;2.72;;;17.70;99.80;;;;;;5071881;28;20036;-81
2022/10/10 07:36:04;;;;;;;4.60;2.40;;;;;;;;;;5072293;28;20041;-79
2022/10/10 07:38:30;;;;;;;4.22;2.30;;;18.90;96.80;;;;;;5072525;28;20040;-79
2022/10/10 07:40:55;;;;;;;4.60;2.30;;;19.50;95.30;;;;;;5035715;28;20044;-79
2022/10/10 07:43:22;;;;;;;6.07;2.50;;;19.50;94.80;;;;;;5072076;28;20044;-79
2022/10/10 07:45:47;;;;;;;3.50;2.30;;;19.90;94.10;;;;;;5055177;28;20040;-79
2022/10/10 07:48:13;;;;;;;5.40;2.85;;;20.50;92.60;;;;;;5069725;28;20405;-83
2022/10/10 07:50:44;;;;;;;4.00;2.25;;;20.70;92.10;;;;;;5069875;28;20039;-79
2022/10/10 07:53:11;;;;;;;3.33;2.13;;;20.30;91.60;;;;;;5049909;28;20064;-80
2022/10/10 07:55:41;;;;;;;4.50;2.17;;;20.30;93.30;;;;;;5070959;28;20394;-80
2022/10/10 07:58:09;;;;;;;3.85;2.05;;;20.90;91.40;;;;;;5055731;28;20041;-80
2022/10/10 08:00:39;;;;;;;7.85;2.38;;;20.80;91.20;;;;;;5070793;28;20043;-80
2022/10/10 08:03:05;;;;;;;5.35;2.30;;;21.00;91.60;;;;;;5068547;28;20051;-80
2022/10/10 08:05:31;;;;;;;5.20;3.00;;;20.70;92.20;;;;;;5055031;28;20123;-80
2022/10/10 08:07:57;;;;;;;5.20;2.10;;;20.70;91.30;;;;;;5055733;28;20059;-80
2022/10/10 08:10:22;;;;;;;4.75;2.08;;;20.20;91.50;;;;;;5067888;28;20041;-80
2022/10/10 08:12:48;;;;;;;3.28;2.38;;;19.50;92.00;;;;;;5071936;28;20484;-80
2022/10/10 08:15:14;;;;;;;4.18;2.30;;;18.90;93.10;;;;;;5053402;28;20041;-80
2022/10/10 08:17:40;;;;;;;4.45;2.40;;;18.10;94.40;;;;;;5055385;28;20035;-83
2022/10/10 08:20:06;;;;;;;7.07;2.92;;;17.50;95.20;;;;;;5055727;28;20052;-80
2022/10/10 08:22:32;;;;;;;4.00;2.25;;;16.90;96.40;;;;;;5071997;28;20064;-80
2022/10/10 08:24:57;;;;;;;4.63;2.35;;;16.50;97.60;;;;;;5054440;28;20563;-80
2022/10/10 08:27:23;;;;;;;4.57;2.42;;;16.40;99.20;;;;;;5071896;28;20037;-79
2022/10/10 08:29:49;;;;;;;5.55;2.38;;;16.60;99.90;;;;;;5055267;28;20086;-79
2022/10/10 08:32:14;;;;;;;5.47;2.85;;;17.20;99.90;;;;;;5071438;28;20039;-79
2022/10/10 08:34:40;;;;;;;6.32;2.90;;;17.60;98.70;;;;;;5055038;28;20036;-79
2022/10/10 08:37:06;;;;;;;5.15;2.88;;;18.20;98.10;;;;;;5072353;28;20111;-78
2022/10/10 08:39:32;;;;;;;6.72;2.90;;;18.30;96.80;;;;;;5067262;28;20498;-79
2022/10/10 08:42:00;;;;;;;4.85;2.10;;;18.40;97.50;;;;;;5072151;28;20032;-79
2022/10/10 08:44:47;;;;;;;10.30;2.85;;;19.00;97.30;;;;;;5072417;28;20273;-79
2022/10/10 08:47:25;;;;;;;7.82;2.70;;;20.10;95.80;;;;;;5068328;28;20048;-80
2022/10/10 08:49:56;;;;;;;4.55;2.20;;;21.10;93.70;;;;;;5068260;28;20119;-81
2022/10/10 08:52:40;;;;;;;4.57;2.42;;;21.40;92.40;;;;;;5067505;28;20120;-79
2022/10/10 08:55:17;;;;;;;6.60;2.70;;;20.60;92.10;;;;;;5035228;28;20049;-79
2022/10/10 08:57:51;;;;;;;5.05;2.40;;;19.90;93.70;;;;;;5067071;28;20048;-79
2022/10/10 09:00:21;;;;;;;5.00;2.67;;;19.50;94.70;;;;;;5054615;28;20427;-79
2022/10/10 09:02:56;;;;;;;4.22;2.10;;;19.30;95.00;;;;;;5054049;28;20479;-79
2022/10/10 09:05:40;;;;;;;5.47;2.15;;;19.60;95.80;;;;;;5071608;28;20072;-80
2022/10/10 09:08:11;;;;;;;6.13;2.60;;;20.10;94.60;;;;;;5053982;28;20491;-80
2022/10/10 09:10:49;;;;;;;4.43;2.47;;;20.40;93.80;;;;;;5056530;28;20487;-80
2022/10/10 09:13:29;;;;;;;4.43;2.38;;;20.30;93.80;;;;;;5051119;28;20071;-80
2022/10/10 09:16:06;;;;;;;3.80;2.30;;;20.30;94.60;;;;;;5051586;28;20041;-80
2022/10/10 09:18:41;;;;;;;4.68;2.70;;;20.30;94.10;;;;;;5064953;28;20079;-80
2022/10/10 09:21:28;;;;;;;4.65;2.53;;;20.00;94.00;;;;;;5073587;28;20052;-77
2022/10/10 09:23:59;;;;;;;6.22;2.90;;;19.40;95.10;;;;;;5075634;28;20046;-77
2022/10/10 09:26:28;;;;;;;5.75;2.83;;;18.90;95.90;;;;;;5075252;28;20094;-77
2022/10/10 09:29:07;;;;;;;7.63;2.47;;;18.90;96.80;;;;;;5047767;28;20095;-77
2022/10/10 09:31:36;;;;;;;6.95;2.90;;;19.10;96.70;;;;;;5073308;28;20119;-77
2022/10/10 09:34:27;;;;;;;4.38;2.33;;;19.60;96.20;;;;;;5075265;28;20036;-77
2022/10/10 09:36:54;;;;;;;4.05;2.38;;;20.10;96.20;;;;;;5075051;28;20040;-77
2022/10/10 09:39:45;;;;;;;6.00;2.70;;;20.30;94.80;;;;;;5041944;28;20052;-77
2022/10/10 09:42:13;;;;;;;5.30;2.50;;;19.70;95.60;;;;;;5075044;28;20421;-77
2022/10/10 09:44:41;;;;;;;6.95;2.58;;;19.30;95.90;;;;;;5074843;28;20044;-77
2022/10/10 09:47:13;;;;;;;5.15;2.60;;;18.90;96.90;;;;;;5074729;28;20040;-77
2022/10/10 09:49:39;;;;;;;9.68;2.58;;;18.50;97.90;;;;;;5071231;28;20040;-77
2022/10/10 09:52:27;;;;;;;3.42;2.22;;;18.30;98.60;;;;;;5074575;28;20044;-78
2022/10/10 09:55:03;;;;;;;5.55;2.63;;;18.40;99.60;;;;;;5074931;28;20127;-77
2022/10/10 09:57:37;;;;;;;;;;;18.60;98.80;;;;;;5074842;28;20044;-77
2022/10/10 10:00:18;;;;;;;4.78;2.72;;;18.80;99.40;;;;;;5071909;28;20286;-77
2022/10/10 10:02:47;;;;;;;4.32;2.50;;;18.80;98.50;;;;;;5056963;28;20040;-77
2022/10/10 10:05:27;;;;;;;5.20;2.35;;;19.10;99.60;;;;;;5074266;28;20041;-77
2022/10/10 10:07:53;;;;;;;5.13;2.83;;;19.30;98.30;;;;;;5074531;28;20565;-77
2022/10/10 10:10:21;;;;;;;5.85;2.70;;;19.80;98.00;;;;;;5074362;28;20124;-77
2022/10/10 10:12:47;;;;;;;5.32;2.60;;;20.60;97.50;;;;;;5073812;28;20049;-77
2022/10/10 10:15:15;;;;;;;6.20;2.78;;;21.80;95.20;;;;;;5074142;28;20045;-78
2022/10/10 10:17:41;;;;;;;6.78;2.58;;;22.00;94.40;;;;;;5074528;28;20372;-78
2022/10/10 10:20:33;;;;;;;5.03;2.60;;;22.00;94.40;;;;;;5074285;28;20056;-77
2022/10/10 10:22:58;;;;;;;4.80;2.58;;;21.70;94.40;;;;;;5073965;28;20482;-77
2022/10/10 10:25:36;;;;;;;3.65;2.15;;;21.30;94.90;;;;;;5057264;28;20402;-77
2022/10/10 10:28:14;;;;;;;6.85;2.35;;;20.60;95.80;;;;;;5064889;28;20048;-77
2022/10/10 10:30:42;;;;;;;3.35;2.22;;;19.90;97.20;;;;;;5074163;28;20106;-77
2022/10/10 10:33:26;;;;;;;6.60;2.67;;;19.40;97.90;;;;;;5047283;28;20475;-77
2022/10/10 10:36:32;;;;;;;4.80;2.95;;;18.90;99.00;;;;;;5073793;28;20059;-79
2022/10/10 10:39:48;;;;;;;5.60;2.95;;;18.50;99.90;;;;;;5054717;28;20099;-80
2022/10/10 10:42:25;;;;;;;7.10;2.50;;;17.90;99.90;;;;;;5039863;28;20044;-80
2022/10/10 10:45:06;;;;;;;5.07;2.90;;;17.50;99.90;;;;;;5053729;28;20049;-80
2022/10/10 10:47:59;;;;;;;7.13;3.25;;;17.10;99.90;;;;;;5072389;28;20076;-80
2022/10/10 10:50:54;;;;;;;8.20;3.20;;;16.80;99.90;;;;;;5068536;28;20479;-80
2022/10/10 10:53:28;;;;;;;6.38;2.70;;;16.60;99.90;;;;;;5056270;28;20071;-80
2022/10/10 10:56:24;;;;;;;7.50;2.67;;;16.40;99.90;;;;;;5057276;28;20044;-81
2022/10/10 10:59:14;;;;;;;6.82;3.63;;;16.20;99.90;;;;;;5054664;28;20056;-80
2022/10/10 11:01:49;;;;;;;5.53;2.83;;;16.00;99.90;;;;;;5056917;28;20083;-80
2022/10/10 11:04:39;;;;;;;6.28;2.70;;;15.80;99.90;;;;;;5052791;28;20087;-81
2022/10/10 11:07:18;;;;;;;5.82;3.65;;;15.60;99.90;;;;;;5036989;28;20041;-81
2022/10/10 11:10:10;;;;;;;6.43;2.47;;;15.50;99.90;;;;;;5053829;28;20053;-81
2022/10/10 11:13:03;;;;;;;4.85;2.75;;;15.40;99.90;;;;;;5053076;28;20584;-80
2022/10/10 11:15:40;;;;;;;5.25;3.05;;;15.40;99.90;;;;;;5069591;28;20048;-80
2022/10/10 11:18:21;;;;;;;7.82;3.55;;;15.40;99.90;;;;;;5073031;28;20103;-80
2022/10/10 11:21:05;;;;;;;8.27;2.97;;;15.40;99.90;;;;;;5072948;28;20406;-80
2022/10/10 11:24:16;;;;;;;7.40;3.00;;;15.40;99.90;;;;;;5072664;28;20091;-80
2022/10/10 11:26:47;;;;;;;8.07;2.75;;;15.30;99.90;;;;;;5058834;22;20056;-79
2022/10/10 11:29:20;;;;;;;7.20;2.85;;;15.20;99.90;;;;;;5052271;28;20527;-79
2022/10/10 11:32:05;;;;;;;5.40;3.17;;;15.20;99.90;;;;;;5052746;28;20037;-80
2022/10/10 11:34:42;;;;;;;4.75;2.63;;;15.10;99.90;;;;;;5019280;28;20041;-80
2022/10/10 11:37:17;;;;;;;9.68;4.00;;;15.00;99.90;;;;;;5036178;28;20513;-81
2022/10/10 11:39:53;;;;;;;8.15;3.65;;;14.90;99.90;;;;;;5019877;28;20106;-81
2022/10/10 11:42:45;;;;;;;7.20;3.17;;;14.80;99.90;;;;;;5029355;28;20044;-81
2022/10/10 11:45:19;;;;;;;7.13;3.30;;;15.30;99.90;;;;;;5031897;28;20503;-81
2022/10/10 11:47:51;;;;;;;8.07;4.53;;;14.80;99.90;;;;;;5032963;28;20041;-82
2022/10/10 11:50:40;;;;;;;7.72;3.60;;;14.80;99.90;;;;;;5043611;28;20053;-81
2022/10/10 11:53:25;;;;;;;5.95;3.25;;;14.80;99.90;;;;;;5053354;28;20041;-81
2022/10/10 11:55:54;;;;;;;6.53;3.35;;;14.80;99.90;;;;;;5045456;28;20559;-82
2022/10/10 11:58:35;;;;;;;8.57;3.53;;;14.80;99.90;;;;;;5055336;28;20083;-82
2022/10/10 12:01:31;;;;;;;6.25;3.00;;;14.80;99.90;;;;;;5050712;28;20049;-82
2022/10/10 12:04:01;;;;;;;6.70;3.35;;;15.00;99.90;;;;;;5056083;28;20136;-82
2022/10/10 12:07:01;;;;;;;7.43;4.13;;;14.90;99.90;;;;;;5039435;28;20047;-81
2022/10/10 12:09:30;;;;;;;7.63;3.22;;;15.00;99.90;;;;;;5038221;28;20045;-81
2022/10/10 12:12:12;;;;;;;6.70;3.40;;;15.00;99.90;;;;;;5036137;28;20044;-81
2022/10/10 12:14:43;;;;;;;7.72;3.65;;;15.00;99.90;;;;;;5049229;28;20045;-81
2022/10/10 12:17:24;;;;;;;6.30;3.28;;;15.00;99.90;;;;;;5031996;28;20511;-81
2022/10/10 12:19:50;;;;;;;9.45;3.97;;;14.90;99.90;;;;;;5020756;28;20037;-85
2022/10/10 12:22:28;;;;;;;6.13;3.47;;;14.80;99.90;;;;;;5032994;28;20037;-86
2022/10/10 12:25:09;;;;;;;7.53;3.70;;;14.70;99.90;;;;;;5035226;28;20044;-86
2022/10/10 12:27:42;;;;;;;6.90;3.50;;;14.60;99.90;;;;;;5051575;28;20052;-86
2022/10/10 12:30:08;;;;;;;6.57;3.40;;;14.60;99.90;;;;;;5028625;28;20109;-86
2022/10/10 12:32:42;;;;;;;8.75;4.28;;;14.50;99.90;;;;;;5034718;28;20119;-86
2022/10/10 12:35:30;;;;;;;9.13;4.00;;;14.50;99.90;;;;;;5051797;28;20041;-86
2022/10/10 12:38:23;;;;;;;6.32;3.53;;;14.50;99.90;;;;;;5052860;28;20044;-82
2022/10/10 12:41:09;;;;;;;5.82;3.58;;;14.30;99.90;;;;;;5034173;28;20044;-82
2022/10/10 12:43:50;;;;;;;7.35;3.80;;;14.30;99.90;;;;;;5052772;28;20052;-82
2022/10/10 12:46:21;;;;;;;8.65;4.72;;;14.20;99.90;;;;;;5052567;28;20083;-82
2022/10/10 12:49:16;;;;;;;8.30;3.75;;;14.20;99.90;;;;;;5035754;28;20044;-82
2022/10/10 12:51:44;;;;;;;9.52;3.85;;;14.10;99.90;;;;;;5052137;28;20499;-82
2022/10/10 12:54:23;;;;;;;6.60;3.85;;;14.10;99.90;;;;;;5052421;28;20041;-84
2022/10/10 12:56:59;;;;;;;10.45;3.65;;;14.10;99.90;;;;;;5055380;28;20041;-83
2022/10/10 12:59:25;;;;;;;9.25;4.43;;;14.10;99.90;;;;;;5038783;28;20384;-83
2022/10/10 13:01:57;;;;;;;11.57;4.32;;;14.00;99.90;;;;;;5021618;28;20044;-83
2022/10/10 13:04:24;;;;;;;8.07;4.20;;;14.00;99.90;;;;;;5054797;28;20114;-83
2022/10/10 13:06:57;;;;;;;9.07;3.97;;;14.00;99.90;;;;;;5058339;28;20048;-83
2022/10/10 13:09:30;;;;;;;7.65;3.45;;;13.90;99.90;;;;;;5036054;28;20033;-83
2022/10/10 13:12:04;;;;;;;6.32;2.13;;;13.80;99.90;;;;;;5036991;28;20050;-86
2022/10/10 13:14:42;;;;;;;3.28;1.40;;;13.70;99.90;;;;;;5039697;28;20033;-86